Time;durP1;ratioP1;P1;durP2;ratioP2;P2;SDS_P1;SDS_P2;PMS_P1;PMS_P2;Temp;Humidity;BMP_temperature;BMP_pressure;BME280_temperature;BME280_humidity;BME280_pressure;Samples;Min_cycle;Max_cycle;Signal;HPM_P1;HPM_P2
2021/07/29 00:02:14;;;;;;;;;;;17.00;99.90;;;15.79;100.00;95713.22;10295596;28;2004;-82
2021/07/29 00:07:17;;;;;;;;;;;16.90;99.90;;;15.62;100.00;95703.03;10285543;28;2066;-80
2021/07/29 00:12:20;;;;;;;;;;;16.80;99.90;;;15.47;100.00;95708.81;10282346;28;2127;-81
2021/07/29 00:19:00;;;;;;;;;;;16.70;99.90;;;15.41;100.00;95697.28;10293324;28;1944;-80
2021/07/29 00:22:53;;;;;;;;;;;16.60;99.90;;;15.38;100.00;95707.91;10305064;28;2043;-79
2021/07/29 00:27:56;;;;;;;;;;;16.60;99.90;;;15.37;100.00;95703.59;10303335;28;1768;-81
2021/07/29 00:32:58;;;;;;;;;;;16.50;99.90;;;15.41;100.00;95699.19;10291949;28;2066;-81
2021/07/29 00:38:02;;;;;;;;;;;16.50;99.90;;;15.44;100.00;95700.47;10283469;28;2034;-81
2021/07/29 00:43:04;;;;;;;;;;;16.50;99.90;;;15.37;100.00;95690.06;10286605;28;2016;-81
2021/07/29 00:48:07;;;;;;;;;;;16.50;99.90;;;15.40;100.00;95700.31;10285231;28;2015;-80
2021/07/29 00:53:13;;;;;;;;;;;16.50;99.90;;;15.42;100.00;95700.78;10284612;28;1739;-81
2021/07/29 00:58:16;;;;;;;;;;;16.50;99.90;;;15.40;100.00;95703.00;10290714;28;2078;-81
2021/07/29 01:03:23;;;;;;;;;;;16.50;99.90;;;15.44;100.00;95695.84;10290755;28;2009;-80
2021/07/29 01:08:26;;;;;;;;;;;16.50;99.90;;;15.40;100.00;95686.75;10289800;28;2276;-79
2021/07/29 01:13:29;;;;;;;;;;;16.50;99.90;;;15.58;100.00;95672.22;10292971;28;2183;-80
2021/07/29 01:18:37;;;;;;;;;;;16.60;99.90;;;15.73;100.00;95686.56;10290105;28;2108;-82
2021/07/29 01:23:42;;;;;;;;;;;16.70;99.90;;;15.70;100.00;95689.88;10298439;28;2235;-80
2021/07/29 01:28:45;;;;;;;;;;;16.70;99.90;;;15.73;100.00;95691.97;10289213;28;2026;-80
2021/07/29 01:33:47;;;;;;;;;;;16.70;99.90;;;15.82;100.00;95684.69;10291889;28;2103;-80
2021/07/29 01:38:50;;;;;;;;;;;16.80;99.90;;;15.90;100.00;95686.66;10293478;28;2338;-79
2021/07/29 01:43:53;;;;;;;;;;;16.80;99.90;;;15.93;100.00;95681.41;10297410;28;2125;-80
2021/07/29 01:48:55;;;;;;;;;;;16.90;99.90;;;16.00;100.00;95691.81;10301152;28;2105;-80
2021/07/29 01:53:58;;;;;;;;;;;16.90;99.90;;;15.96;100.00;95690.84;10313997;28;2057;-80
2021/07/29 01:59:06;;;;;;;;;;;17.00;99.90;;;15.99;100.00;95690.22;10279657;28;2257;-80
2021/07/29 02:04:08;;;;;;;;;;;17.00;99.90;;;16.01;100.00;95684.50;10272584;28;2203;-80
2021/07/29 02:09:12;;;;;;;;;;;17.00;99.90;;;16.02;100.00;95691.50;10282842;28;2159;-78
2021/07/29 02:14:15;;;;;;;;;;;17.00;99.90;;;16.03;100.00;95691.22;10285506;28;2169;-80
2021/07/29 02:19:17;;;;;;;;;;;17.00;99.90;;;16.03;100.00;95691.22;10282181;28;2108;-78
2021/07/29 02:24:20;;;;;;;;;;;17.00;99.90;;;15.98;100.00;95699.47;10294478;28;2259;-82
2021/07/29 02:29:23;;;;;;;;;;;17.00;99.90;;;15.86;100.00;95700.03;10286974;28;1949;-80
2021/07/29 02:34:25;;;;;;;;;;;16.90;99.90;;;15.73;100.00;95691.97;10288073;28;2219;-79
2021/07/29 02:39:28;;;;;;;;;;;16.80;99.90;;;15.70;100.00;95693.38;10273989;28;2128;-81
2021/07/29 02:44:31;;;;;;;;;;;16.80;99.90;;;15.75;100.00;95697.88;10290544;28;2188;-82
2021/07/29 02:49:34;;;;;;;;;;;16.70;99.90;;;15.89;100.00;95699.41;10292525;28;2131;-81
2021/07/29 02:54:36;;;;;;;;;;;16.80;99.90;;;16.06;100.00;95704.16;10298335;28;2104;-81
2021/07/29 02:59:39;;;;;;;;;;;16.90;99.90;;;16.13;100.00;95701.78;10286210;28;2133;-80
2021/07/29 03:04:42;;;;;;;;;;;17.00;99.90;;;16.13;100.00;95704.50;10292047;28;2204;-81
2021/07/29 03:09:44;;;;;;;;;;;17.00;99.90;;;16.17;100.00;95708.22;10297066;28;2211;-81
2021/07/29 03:14:47;;;;;;;;;;;17.10;99.90;;;16.30;100.00;95709.22;10294857;28;2148;-81
2021/07/29 03:19:50;;;;;;;;;;;17.20;99.90;;;16.32;100.00;95708.91;10295066;28;2140;-81
2021/07/29 03:24:52;;;;;;;;;;;17.20;99.90;;;16.31;100.00;95712.75;10303533;28;2192;-81
2021/07/29 03:29:55;;;;;;;;;;;17.20;99.90;;;16.28;100.00;95707.94;10281354;28;2108;-81
2021/07/29 03:34:58;;;;;;;;;;;17.20;99.90;;;16.17;100.00;95710.13;10300591;28;2153;-81
2021/07/29 03:40:04;;;;;;;;;;;17.20;99.90;;;16.18;100.00;95712.50;10290780;28;2453;-81
2021/07/29 03:45:07;;;;;;;;;;;17.20;99.90;;;16.24;100.00;95706.97;10291740;28;2169;-78
2021/07/29 03:50:10;;;;;;;;;;;17.20;99.90;;;16.18;100.00;95709.81;10294137;28;2406;-79
2021/07/29 03:55:12;;;;;;;;;;;17.20;99.90;;;16.13;100.00;95709.94;10279668;28;2389;-78
2021/07/29 04:00:15;;;;;;;;;;;17.20;99.90;;;16.02;100.00;95708.56;10295116;28;2473;-80
2021/07/29 04:05:18;;;;;;;;;;;17.00;99.90;;;16.13;100.00;95717.25;10312325;28;2488;-80
2021/07/29 04:10:20;;;;;;;;;;;17.00;99.90;;;16.23;100.00;95718.94;10311498;28;2108;-80
2021/07/29 04:15:23;;;;;;;;;;;17.10;99.90;;;16.24;100.00;95712.38;10300361;28;2064;-81
2021/07/29 04:20:46;;;;;;;;;;;17.20;99.90;;;16.11;100.00;95709.44;10286945;28;2167;-81
2021/07/29 04:25:51;;;;;;;;;;;17.20;99.90;;;16.03;100.00;95710.19;10287397;28;2092;-79
2021/07/29 04:30:54;;;;;;;;;;;17.10;99.90;;;16.03;100.00;95712.91;10280897;28;2149;-80
2021/07/29 04:35:57;;;;;;;;;;;17.10;99.90;;;16.51;97.56;95717.63;10286895;28;2445;-80
2021/07/29 04:41:00;;;;;;;;;;;17.10;99.90;;;17.42;91.30;95714.22;10289836;28;2584;-81
2021/07/29 04:46:03;;;;;;;;;;;17.70;99.90;;;17.89;87.50;95714.44;10296603;28;2568;-79
2021/07/29 04:51:05;;;;;;;;;;;18.20;99.90;;;17.70;88.06;95712.00;10313118;28;2483;-78
2021/07/29 04:56:08;;;;;;;;;;;18.40;99.90;;;17.31;90.82;95710.25;10279539;28;2188;-80
2021/07/29 05:01:11;;;;;;;;;;;18.30;99.90;;;17.25;90.62;95704.16;10287415;28;2216;-79
2021/07/29 05:06:14;;;;;;;;;;;18.10;99.90;;;17.56;89.07;95704.03;10288355;28;2136;-80
2021/07/29 05:11:17;;;;;;;;;;;18.20;99.90;;;18.04;86.22;95707.69;10303880;28;2373;-80
2021/07/29 05:16:19;;;;;;;;;;;18.60;99.90;;;18.48;83.36;95711.91;10324752;28;2368;-82
2021/07/29 05:21:22;;;;;;;;;;;19.00;99.90;;;19.08;80.40;95710.06;10315152;28;2235;-83
2021/07/29 05:26:25;;;;;;;;;;;19.40;99.90;;;20.05;74.87;95706.34;10280652;28;2211;-85
2021/07/29 05:31:28;;;;;;;;;;;20.00;99.90;;;20.12;72.72;95717.50;10285998;28;2144;-81
2021/07/29 05:36:30;;;;;;;;;;;20.60;99.90;;;19.52;76.29;95700.47;10285838;28;2313;-82
2021/07/29 05:41:33;;;;;;;;;;;20.50;99.90;;;18.77;79.98;95708.47;10287511;28;2284;-78
2021/07/29 05:46:36;;;;;;;;;;;20.10;99.90;;;19.08;79.15;95712.78;10301993;28;2262;-78
2021/07/29 05:51:40;;;;;;;;;;;19.80;99.90;;;19.57;77.34;95718.56;10316875;28;2220;-82
2021/07/29 05:56:43;;;;;;;;;;;20.00;99.90;;;19.93;75.05;95716.06;10297657;28;1822;-81
2021/07/29 06:01:45;;;;;;;;;;;20.40;99.90;;;20.21;72.71;95710.00;10302426;28;1977;-79
2021/07/29 06:06:48;;;;;;;;;;;20.70;99.90;;;20.42;70.62;95713.50;10306270;28;2155;-79
2021/07/29 06:11:51;;;;;;;;;;;21.00;99.90;;;21.13;68.10;95722.47;10297095;28;2167;-81
2021/07/29 06:16:54;;;;;;;;;;;21.30;99.90;;;21.79;64.84;95722.97;10313889;28;2034;-80
2021/07/29 06:21:57;;;;;;;;;;;21.90;99.90;;;21.49;64.87;95714.25;10297198;28;2293;-80
2021/07/29 06:27:00;;;;;;;;;;;22.20;99.90;;;20.57;68.79;95723.00;10317264;28;1887;-82
2021/07/29 06:32:03;;;;;;;;;;;21.70;99.90;;;20.89;68.28;95717.81;10311045;28;2080;-80
2021/07/29 06:37:06;;;;;;;;;;;21.40;99.90;;;21.42;65.66;95707.78;10294932;28;2148;-81
2021/07/29 06:42:09;;;;;;;;;;;21.80;99.90;;;21.55;65.97;95709.34;10307332;28;2037;-81
2021/07/29 06:47:12;;;;;;;;;;;22.00;99.90;;;21.97;63.84;95711.75;10320329;28;2169;-78
2021/07/29 06:52:15;;;;;;;;;;;22.20;99.90;;;22.25;63.19;95707.06;10332279;28;1934;-79
2021/07/29 06:57:17;;;;;;;;;;;22.70;99.90;;;22.69;61.32;95709.78;10302591;28;2076;-81
2021/07/29 07:02:20;;;;;;;;;;;23.00;99.90;;;23.20;59.04;95718.09;10317858;28;2164;-81
2021/07/29 07:07:36;;;;;;;;;;;23.40;99.90;;;24.36;55.49;95717.47;10313935;28;2066;-81
2021/07/29 07:12:38;;;;;;;;;;;24.10;99.90;;;24.41;55.18;95717.19;10301258;28;2027;-80
2021/07/29 07:17:41;;;;;;;;;;;24.70;99.90;;;23.87;56.10;95707.09;10300732;28;2121;-80
2021/07/29 07:22:44;;;;;;;;;;;24.40;99.90;;;23.49;58.84;95708.59;10296822;28;2075;-81
2021/07/29 07:27:47;;;;;;;;;;;24.10;99.90;;;24.40;55.38;95707.38;10319158;28;2086;-82
2021/07/29 07:32:49;;;;;;;;;;;24.30;99.90;;;24.82;54.72;95701.06;10315100;28;2241;-79
2021/07/29 07:37:52;;;;;;;;;;;25.00;99.90;;;24.82;53.25;95707.34;10307118;28;1915;-80
2021/07/29 07:42:55;;;;;;;;;;;25.30;99.90;;;24.30;56.99;95705.16;10300726;28;1806;-83
2021/07/29 07:48:02;;;;;;;;;;;24.80;99.90;;;24.90;55.35;95708.25;10304783;28;2169;-81
2021/07/29 07:53:06;;;;;;;;;;;25.10;99.90;;;25.40;53.07;95707.13;10294816;28;2144;-80
2021/07/29 07:58:09;;;;;;;;;;;25.60;99.90;;;24.88;51.40;95705.09;10281277;28;2046;-82
2021/07/29 08:03:12;;;;;;;;;;;25.50;99.90;;;25.10;50.44;95700.75;10292106;28;2019;-80
2021/07/29 08:08:15;;;;;;;;;;;25.40;99.90;;;24.98;49.14;95688.75;10299579;28;2276;-80
2021/07/29 08:13:18;;;;;;;;;;;25.90;99.90;;;25.40;48.82;95692.56;10323532;28;1801;-79
2021/07/29 08:18:20;;;;;;;;;;;25.90;99.90;;;24.82;47.82;95684.56;10322693;28;1801;-77
2021/07/29 08:23:23;;;;;;;;;;;25.80;99.90;;;24.46;49.01;95681.19;10300513;28;1857;-80
2021/07/29 08:28:26;;;;;;;;;;;25.50;99.90;;;24.85;47.69;95684.59;10290915;28;2228;-81
2021/07/29 08:33:28;;;;;;;;;;;25.30;99.90;;;24.91;48.50;95682.34;10293232;28;1904;-81
2021/07/29 08:38:31;;;;;;;;;;;25.40;99.90;;;24.85;49.04;95672.81;10291413;28;2063;-80
2021/07/29 08:43:34;;;;;;;;;;;25.30;99.90;;;25.14;45.93;95676.84;10298478;28;2007;-78
2021/07/29 08:48:36;;;;;;;;;;;25.60;99.90;;;24.10;48.40;95669.50;10322708;28;2190;-79
2021/07/29 08:53:39;;;;;;;;;;;25.30;99.90;;;24.64;46.13;95668.56;10304124;28;2166;-79
2021/07/29 08:58:42;;;;;;;;;;;25.20;99.90;;;24.49;46.61;95666.69;10285841;28;2035;-79
2021/07/29 09:03:45;;;;;;;;;;;25.20;99.90;;;24.53;45.54;95667.56;10303688;28;2123;-80
2021/07/29 09:08:48;;;;;;;;;;;25.20;99.90;;;24.25;45.19;95663.13;10316777;28;1911;-78
2021/07/29 09:13:51;;;;;;;;;;;25.10;99.90;;;24.37;45.55;95664.94;10303311;28;1974;-78
2021/07/29 09:18:53;;;;;;;;;;;25.00;99.90;;;24.58;45.30;95664.53;10290605;28;2012;-81
2021/07/29 09:23:56;;;;;;;;;;;25.20;99.90;;;25.40;43.97;95659.56;10287358;28;2004;-80
2021/07/29 09:28:59;;;;;;;;;;;25.70;99.90;;;25.29;42.83;95660.19;10287927;28;2067;-81
2021/07/29 09:34:02;;;;;;;;;;;26.10;99.90;;;25.71;42.19;95664.69;10279945;28;2108;-81
2021/07/29 09:39:05;;;;;;;;;;;26.20;99.90;;;25.09;43.05;95655.97;10287687;28;2082;-82
2021/07/29 09:44:07;;;;;;;;;;;25.80;99.90;;;24.94;44.96;95662.34;10286944;28;2113;-82
2021/07/29 09:49:10;;;;;;;;;;;25.70;99.90;;;25.29;44.15;95665.69;10284768;28;1914;-80
2021/07/29 09:54:13;;;;;;;;;;;25.80;99.90;;;26.33;40.79;95661.50;10282756;28;2137;-79
2021/07/29 09:59:16;;;;;;;;;;;26.20;99.90;;;25.64;41.23;95658.28;10290760;28;2098;-81
2021/07/29 10:04:18;;;;;;;;;;;26.50;99.90;;;25.70;43.48;95657.56;10282522;28;2214;-81
2021/07/29 10:09:22;;;;;;;;;;;26.30;99.90;;;26.44;40.72;95643.13;10298724;28;2130;-81
2021/07/29 10:14:25;;;;;;;;;;;26.70;99.90;;;26.27;41.89;95644.50;10291563;28;2132;-81
2021/07/29 10:19:27;;;;;;;;;;;27.00;99.90;;;25.68;44.81;95640.66;10296426;28;2089;-81
2021/07/29 10:24:30;;;;;;;;;;;26.60;99.90;;;25.63;43.96;95635.47;10284592;28;2130;-80
2021/07/29 10:29:33;;;;;;;;;;;26.60;99.90;;;25.14;44.23;95641.09;10299573;28;2111;-80
2021/07/29 10:34:36;;;;;;;;;;;26.30;99.90;;;25.58;45.43;95639.38;10301599;28;2019;-81
2021/07/29 10:39:38;;;;;;;;;;;26.10;99.90;;;26.17;44.50;95623.16;10286534;28;1959;-81
2021/07/29 10:44:41;;;;;;;;;;;26.60;99.90;;;26.34;42.16;95619.00;10303102;28;1915;-79
2021/07/29 10:49:44;;;;;;;;;;;26.90;99.90;;;26.64;41.93;95610.63;10283598;28;2042;-80
2021/07/29 10:54:46;;;;;;;;;;;27.40;99.90;;;28.19;39.67;95609.16;10287010;28;2220;-81
2021/07/29 10:59:49;;;;;;;;;;;28.50;99.90;;;28.74;37.22;95611.63;10291033;28;2304;-79
2021/07/29 11:04:52;;;;;;;;;;;29.60;99.90;;;29.84;35.44;95610.69;10297783;28;2000;-78
2021/07/29 11:09:55;;;;;;;;;;;31.30;99.90;;;28.75;36.74;95606.88;10292285;28;2346;-80
2021/07/29 11:14:57;;;;;;;;;;;31.50;97.40;;;26.81;39.64;95593.44;10282907;28;2098;-80
2021/07/29 11:20:00;;;;;;;;;;;29.20;98.60;;;27.59;39.98;95597.88;10283479;28;2315;-81
2021/07/29 11:25:03;;;;;;;;;;;28.40;99.90;;;27.73;41.18;95581.38;10283742;28;2114;-81
2021/07/29 11:30:06;;;;;;;;;;;29.30;99.90;;;27.91;38.22;95586.97;10281772;28;1910;-82
2021/07/29 11:35:08;;;;;;;;;;;29.40;98.90;;;27.10;40.04;95596.41;10293352;28;2059;-81
2021/07/29 11:40:11;;;;;;;;;;;28.80;98.50;;;26.72;41.04;95583.91;10292315;28;2328;-80
2021/07/29 11:45:14;;;;;;;;;;;27.70;99.90;;;26.59;43.35;95580.66;10289655;28;2007;-80
2021/07/29 11:50:16;;;;;;;;;;;27.40;99.90;;;26.25;43.12;95580.72;10294156;28;2114;-80
2021/07/29 11:55:20;;;;;;;;;;;27.30;99.90;;;25.54;45.03;95582.69;10290172;28;2094;-80
2021/07/29 12:00:23;;;;;;;;;;;26.60;99.90;;;25.83;44.76;95573.63;10291309;28;1891;-80
2021/07/29 12:05:29;;;;;;;;;;;26.50;99.90;;;26.17;43.31;95559.81;10293628;28;1984;-82
2021/07/29 12:10:35;;;;;;;;;;;26.70;99.90;;;25.91;42.64;95551.69;10299159;28;1974;-81
2021/07/29 12:15:38;;;;;;;;;;;26.70;99.90;;;26.07;42.73;95542.00;10291819;28;2007;-80
2021/07/29 12:20:41;;;;;;;;;;;26.70;99.90;;;26.38;41.94;95543.44;10295641;28;2064;-78
2021/07/29 12:25:43;;;;;;;;;;;27.00;99.90;;;26.34;41.96;95539.88;10294162;28;1967;-77
2021/07/29 12:30:48;;;;;;;;;;;27.10;99.90;;;26.24;42.66;95537.03;10297356;28;2103;-79
2021/07/29 12:35:50;;;;;;;;;;;27.10;99.90;;;26.35;40.78;95527.69;10286998;28;2024;-81
2021/07/29 12:40:53;;;;;;;;;;;27.20;99.90;;;26.73;38.76;95516.59;10293783;28;2023;-80
2021/07/29 12:45:56;;;;;;;;;;;27.40;98.90;;;27.00;39.74;95511.63;10298392;28;2083;-80
2021/07/29 12:50:59;;;;;;;;;;;27.60;98.70;;;27.42;40.32;95514.63;10294871;28;2054;-81
2021/07/29 12:56:01;;;;;;;;;;;28.10;99.40;;;27.02;40.29;95500.97;10285181;28;2094;-81
2021/07/29 13:01:04;;;;;;;;;;;27.90;98.10;;;27.28;40.90;95499.94;10286718;28;1988;-78
2021/07/29 13:06:07;;;;;;;;;;;28.00;99.80;;;27.51;40.32;95499.66;10294517;28;2093;-80
2021/07/29 13:11:10;;;;;;;;;;;28.10;98.90;;;26.61;42.04;95506.66;10281491;28;2125;-80
2021/07/29 13:16:26;;;;;;;;;;;27.70;99.00;;;25.78;43.10;95499.63;10292019;28;2057;-80
2021/07/29 13:21:32;;;;;;;;;;;27.00;99.90;;;25.92;43.48;95492.66;10290390;28;1988;-82
2021/07/29 13:26:34;;;;;;;;;;;26.60;99.90;;;26.33;42.76;95485.94;10279078;28;2111;-83
2021/07/29 13:31:37;;;;;;;;;;;26.90;99.90;;;26.89;41.46;95479.25;10297582;28;1947;-81
2021/07/29 13:36:40;;;;;;;;;;;27.20;99.90;;;26.88;40.41;95476.88;10326650;28;2083;-79
2021/07/29 13:41:43;;;;;;;;;;;27.50;98.20;;;27.00;39.98;95484.81;10324996;28;2070;-79
2021/07/29 13:46:46;;;;;;;;;;;27.70;97.50;;;26.49;41.54;95485.69;10305562;28;1957;-81
2021/07/29 13:51:48;;;;;;;;;;;27.50;98.20;;;26.67;41.68;95472.81;10281385;28;1995;-80
2021/07/29 13:56:51;;;;;;;;;;;27.50;98.70;;;27.11;40.80;95473.88;10296648;28;2062;-80
2021/07/29 14:02:05;;;;;;;;;;;27.80;97.90;;;27.18;40.19;95462.88;10300671;28;2028;-79
2021/07/29 14:07:08;;;;;;;;;;;28.00;97.30;;;27.25;40.60;95460.13;10314158;28;1983;-81
2021/07/29 14:12:11;;;;;;;;;;;28.10;97.60;;;27.47;40.20;95461.75;10312235;28;1844;-81
2021/07/29 14:17:17;;;;;;;;;;;28.20;97.10;;;27.17;41.32;95459.31;10303805;28;2249;-81
2021/07/29 14:27:49;;;;;;;;;;;28.00;95.40;;;26.37;41.34;95453.69;10279284;28;1914;-78
2021/07/29 14:32:52;;;;;;;;;;;27.50;95.90;;;26.82;41.30;95443.34;10287166;28;2201;-83
2021/07/29 14:37:54;;;;;;;;;;;27.40;97.20;;;27.08;40.80;95436.00;10281116;28;1995;-80
2021/07/29 14:42:57;;;;;;;;;;;27.70;96.50;;;27.41;38.89;95432.97;10286827;28;2087;-81
2021/07/29 14:53:17;;;;;;;;;;;28.10;95.30;;;27.80;38.75;95437.78;10271877;28;2004;-80
2021/07/29 16:08:15;;;;;;;;;;;26.80;95.00;;;26.03;42.02;95417.25;10285987;28;2062;-80
2021/07/29 16:13:29;;;;;;;;;;;26.90;94.50;;;25.93;42.24;95406.13;10280631;28;2102;-81
2021/07/29 16:18:31;;;;;;;;;;;26.90;94.10;;;25.84;43.15;95406.47;10289857;28;2175;-81
2021/07/29 16:23:34;;;;;;;;;;;26.90;95.30;;;26.12;42.27;95408.63;10290244;28;1963;-81
2021/07/29 16:28:37;;;;;;;;;;;26.90;94.80;;;26.06;43.11;95404.66;10295281;28;2055;-80
2021/07/29 16:33:39;;;;;;;;;;;26.90;95.60;;;25.80;42.22;95403.66;10287553;28;2220;-79
2021/07/29 16:38:43;;;;;;;;;;;26.80;94.70;;;25.23;47.71;95391.31;10301826;28;2098;-82
2021/07/29 16:43:45;;;;;;;;;;;26.50;98.50;;;25.28;44.65;95388.22;10297156;28;2074;-82
2021/07/29 16:48:48;;;;;;;;;;;26.20;97.10;;;24.89;45.81;95394.03;10294901;28;2051;-81
2021/07/29 16:53:51;;;;;;;;;;;26.00;97.40;;;24.80;47.92;95388.81;10280479;28;1975;-83
2021/07/29 16:58:54;;;;;;;;;;;25.80;98.30;;;24.86;44.64;95392.03;10289551;28;2136;-81
2021/07/29 17:03:56;;;;;;;;;;;25.70;97.00;;;24.70;46.17;95391.47;10284485;28;2019;-80
2021/07/29 17:08:59;;;;;;;;;;;25.60;97.00;;;24.53;45.65;95396.34;10281846;28;1915;-82
2021/07/29 17:14:03;;;;;;;;;;;25.60;97.40;;;24.34;47.15;95392.94;10269354;28;1991;-81
2021/07/29 17:19:12;;;;;;;;;;;25.40;98.90;;;24.18;47.45;95387.59;10267605;28;1815;-80
2021/07/29 17:24:15;;;;;;;;;;;25.20;99.50;;;24.10;48.31;95386.66;10272920;28;2062;-81
2021/07/29 17:29:17;;;;;;;;;;;25.10;99.90;;;24.04;48.75;95388.16;10293802;28;2102;-81
2021/07/29 17:34:20;;;;;;;;;;;25.00;99.90;;;23.96;49.34;95380.97;10301856;28;1876;-82
2021/07/29 17:39:23;;;;;;;;;;;25.00;99.90;;;24.00;47.91;95392.81;10292096;28;2075;-81
2021/07/29 17:44:26;;;;;;;;;;;24.90;99.90;;;23.87;48.18;95388.69;10284842;28;2059;-81
2021/07/29 17:49:28;;;;;;;;;;;24.90;99.90;;;23.82;48.50;95391.72;10282375;28;1907;-81
2021/07/29 17:54:31;;;;;;;;;;;24.80;99.90;;;23.66;49.10;95389.91;10284637;28;1959;-81
2021/07/29 17:59:34;;;;;;;;;;;24.70;99.90;;;23.52;49.89;95389.63;10288855;28;1975;-81
2021/07/29 18:04:57;;;;;;;;;;;24.50;99.90;;;23.29;50.75;95397.06;10294195;28;2017;-80
2021/07/29 18:09:59;;;;;;;;;;;24.30;99.90;;;23.24;50.93;95400.91;10310846;28;1949;-79
2021/07/29 18:15:02;;;;;;;;;;;24.30;99.90;;;23.00;51.56;95399.28;10304344;28;2038;-82
2021/07/29 18:20:10;;;;;;;;;;;24.10;99.90;;;22.93;52.30;95401.88;10294809;28;1911;-81
2021/07/29 18:25:15;;;;;;;;;;;24.00;99.90;;;22.74;52.90;95399.13;10286725;28;2133;-80
2021/07/29 18:30:17;;;;;;;;;;;23.80;99.90;;;22.65;53.29;95402.88;10301857;28;2119;-79
2021/07/29 18:35:20;;;;;;;;;;;23.70;99.90;;;22.53;53.59;95403.00;10301918;28;2126;-79
2021/07/29 18:40:22;;;;;;;;;;;23.50;99.90;;;22.28;54.69;95405.19;10311800;28;1860;-81
2021/07/29 18:45:25;;;;;;;;;;;23.40;99.90;;;22.08;55.45;95407.06;10289436;28;2058;-79
2021/07/29 18:50:28;;;;;;;;;;;23.30;99.90;;;21.87;56.39;95414.75;10293356;28;1900;-81
2021/07/29 18:55:30;;;;;;;;;;;23.00;99.90;;;21.65;57.31;95410.72;10297061;28;2097;-83
2021/07/29 19:00:35;;;;;;;;;;;22.90;99.90;;;21.48;58.28;95422.78;10315785;28;1731;-79
2021/07/29 19:05:38;;;;;;;;;;;22.70;99.90;;;21.33;58.54;95415.38;10308218;28;2039;-80
2021/07/29 19:10:41;;;;;;;;;;;22.60;99.90;;;21.07;59.49;95425.97;10294758;28;1923;-82
2021/07/29 19:15:44;;;;;;;;;;;22.40;99.90;;;20.91;60.86;95426.69;10293783;28;1915;-79
2021/07/29 19:20:46;;;;;;;;;;;22.20;99.90;;;20.68;61.86;95431.13;10278402;28;2134;-81
2021/07/29 19:25:50;;;;;;;;;;;22.00;99.90;;;20.51;62.79;95440.38;10291563;28;2015;-81
2021/07/29 19:30:53;;;;;;;;;;;21.80;99.90;;;20.40;63.86;95440.03;10297548;28;2019;-81
2021/07/29 19:35:56;;;;;;;;;;;21.70;99.90;;;20.26;65.39;95447.78;10303147;28;1948;-79
2021/07/29 19:40:59;;;;;;;;;;;21.50;99.90;;;20.08;66.89;95435.53;10304856;28;1815;-80
2021/07/29 19:46:02;;;;;;;;;;;21.40;99.90;;;20.00;68.05;95441.91;10305207;28;2087;-81
2021/07/29 19:51:05;;;;;;;;;;;21.30;99.90;;;19.90;68.89;95443.94;10302484;28;2055;-83
2021/07/29 19:56:07;;;;;;;;;;;21.10;99.90;;;19.83;69.36;95435.53;10308499;28;2004;-79
2021/07/29 20:01:13;;;;;;;;;;;21.00;99.90;;;19.75;69.53;95441.09;10326537;28;1770;-80
2021/07/29 20:06:15;;;;;;;;;;;20.90;99.90;;;19.73;70.21;95449.63;10304507;28;2121;-81
2021/07/29 20:11:18;;;;;;;;;;;20.90;99.90;;;19.65;69.79;95450.50;10293019;28;1976;-80
2021/07/29 20:16:21;;;;;;;;;;;20.80;99.90;;;19.65;69.88;95445.06;10281775;28;2032;-81
2021/07/29 20:21:24;;;;;;;;;;;20.80;99.90;;;19.51;70.59;95445.34;10285578;28;2011;-82
2021/07/29 20:26:26;;;;;;;;;;;20.70;99.90;;;19.44;71.08;95432.28;10285124;28;2165;-79
2021/07/29 20:31:29;;;;;;;;;;;20.60;99.90;;;19.23;72.15;95437.00;10284382;28;1973;-81
2021/07/29 20:36:32;;;;;;;;;;;20.50;99.90;;;19.16;72.24;95437.56;10288098;28;1879;-81
2021/07/29 20:41:35;;;;;;;;;;;20.40;99.90;;;19.14;73.89;95430.84;10282287;28;2391;-81
2021/07/29 20:46:38;;;;;;;;;;;20.30;99.90;;;19.09;73.62;95431.06;10277892;28;1927;-81
2021/07/29 20:51:41;;;;;;;;;;;20.20;99.90;;;19.02;73.39;95439.78;10283795;28;2135;-80
2021/07/29 20:56:43;;;;;;;;;;;20.20;99.90;;;18.93;74.55;95438.28;10278435;28;2047;-80
2021/07/29 21:01:46;;;;;;;;;;;20.10;99.90;;;18.88;75.45;95431.88;10280613;28;2086;-80
2021/07/29 21:06:49;;;;;;;;;;;20.10;99.90;;;18.80;76.72;95434.69;10282198;28;2148;-81
2021/07/29 21:11:52;;;;;;;;;;;19.90;99.90;;;18.80;76.74;95426.53;10284340;28;1914;-81
2021/07/29 21:16:54;;;;;;;;;;;19.90;99.90;;;18.76;77.13;95423.66;10282171;28;2063;-78
2021/07/29 21:21:57;;;;;;;;;;;19.90;99.90;;;18.69;78.75;95420.69;10284864;28;2122;-79
2021/07/29 21:27:04;;;;;;;;;;;19.80;99.90;;;18.59;80.35;95421.88;10283422;28;2031;-82
2021/07/29 21:32:07;;;;;;;;;;;19.70;99.90;;;18.50;80.67;95431.22;10300883;28;1910;-81
2021/07/29 21:37:10;;;;;;;;;;;19.60;99.90;;;18.46;80.94;95431.09;10285322;28;2086;-81
2021/07/29 21:42:13;;;;;;;;;;;19.60;99.90;;;18.47;80.95;95431.91;10285985;28;1853;-81
2021/07/29 21:47:15;;;;;;;;;;;19.50;99.90;;;18.39;81.12;95430.06;10293221;28;2073;-79
2021/07/29 21:52:20;;;;;;;;;;;19.50;99.90;;;18.26;81.25;95429.97;10277739;28;2052;-81
2021/07/29 21:57:23;;;;;;;;;;;19.40;99.90;;;18.19;82.30;95426.97;10288224;28;1704;-83
2021/07/29 22:02:26;;;;;;;;;;;19.40;99.90;;;18.08;83.31;95420.34;10285198;28;2074;-81
2021/07/29 22:07:29;;;;;;;;;;;19.30;99.90;;;18.03;84.13;95425.97;10278250;28;2051;-82
2021/07/29 22:12:32;;;;;;;;;;;19.10;99.90;;;17.97;84.00;95424.56;10285805;28;2110;-81
2021/07/29 22:17:35;;;;;;;;;;;19.10;99.90;;;17.88;84.96;95426.50;10304389;28;1946;-82
2021/07/29 22:22:38;;;;;;;;;;;19.00;99.90;;;17.85;84.95;95429.91;10297106;28;1860;-82
2021/07/29 22:27:41;;;;;;;;;;;19.00;99.90;;;17.78;85.48;95424.97;10290575;28;2027;-82
2021/07/29 22:32:44;;;;;;;;;;;18.90;99.90;;;17.75;85.76;95428.34;10291584;28;1915;-82
2021/07/29 22:37:46;;;;;;;;;;;18.90;99.90;;;17.69;86.46;95419.56;10288961;28;1732;-81
2021/07/29 22:42:49;;;;;;;;;;;18.80;99.90;;;17.68;86.52;95417.94;10293926;28;1896;-81
2021/07/29 22:47:52;;;;;;;;;;;18.80;99.90;;;17.62;86.22;95413.81;10295783;28;1844;-81
2021/07/29 22:52:55;;;;;;;;;;;18.80;99.90;;;17.59;86.81;95402.81;10299364;28;1975;-82
2021/07/29 22:57:58;;;;;;;;;;;18.70;99.90;;;17.54;86.86;95396.44;10278718;28;2117;-81
2021/07/29 23:03:01;;;;;;;;;;;18.60;99.90;;;17.46;87.15;95393.75;10285097;28;1829;-81
2021/07/29 23:08:04;;;;;;;;;;;18.60;99.90;;;17.44;86.62;95393.28;10282337;28;2038;-80
2021/07/29 23:13:07;;;;;;;;;;;18.50;99.90;;;17.38;87.50;95389.16;10290409;28;1740;-80
2021/07/29 23:18:10;;;;;;;;;;;18.50;99.90;;;17.35;88.29;95390.59;10294416;28;1760;-81
2021/07/29 23:23:16;;;;;;;;;;;18.50;99.90;;;17.34;88.02;95391.72;10287115;28;2040;-80
2021/07/29 23:28:20;;;;;;;;;;;18.40;99.90;;;17.25;88.68;95382.81;10283804;28;1883;-81
2021/07/29 23:33:22;;;;;;;;;;;18.40;99.90;;;17.12;88.83;95394.69;10320682;28;1803;-79
2021/07/29 23:38:25;;;;;;;;;;;18.30;99.90;;;17.11;90.54;95388.44;10334235;28;1664;-81
2021/07/29 23:43:28;;;;;;;;;;;18.20;99.90;;;17.23;90.20;95385.84;10339996;28;1704;-80
2021/07/29 23:48:30;;;;;;;;;;;18.20;99.90;;;17.06;91.64;95374.25;10328610;28;1910;-80
2021/07/29 23:53:34;;;;;;;;;;;18.10;99.90;;;16.90;91.46;95382.13;10321489;28;2075;-81
2021/07/29 23:58:37;;;;;;;;;;;18.10;99.90;;;16.81;92.78;95382.13;10302377;28;1936;-82
